ePrivacy and GPDR Cookie Consent by Cookie Consent
EmailTwitter


Surface observations / United Kingdom / EGUB (03658)

Regions: Quebec | Canada | USA | Europe | France | UK | Elsewhere
Station
Display
Info & Location for EGUB (03658) | Help decoding METAR

Weather Conditions observed on 2022/08/11 at 23:50 UTC at BENSON RAF, UK (EGUB)

Temperature: 17.0 Celsius.

Dewpoint: 9.0 Celsius.

Relative Humidity: 59%

Winds: Northeast at 7 km/h or 4 knots.

Mean Sea level Pressure: 102.10 kilopascals.

Coded METAR:

EGUB 112350Z 03004KT CAVOK 17/09 Q1021 NOSIG RMK BLU BLU=